Monday, October 16, 2017, 5:50 PM EDT
Back to Local

KCQX, Chatham Municipal Airport

Location: Chatham, MA, United States Lat: 41.683
Local Time: 5:50 PM EDT (21:50 GMT) Lon: -70
Time Zone: US/Eastern Elev: 68 ft

Show me the last for .
Show Decoded

2017-10-16 16:52 METAR KCQX 162052Z AUTO VRB03KT 10SM OVC038 13/08 A2997 RMK AO2 SLP150 T01280078
                 53017 =
2017-10-16 15:52 METAR KCQX 161952Z AUTO VRB04KT 10SM BKN036 13/08 A2993 RMK AO2 SLP137 T01330078
                 =
2017-10-16 14:52 METAR KCQX 161852Z AUTO VRB03G17KT 10SM BKN038 14/08 A2992 RMK AO2 SLP131
                 T01390078 =
2017-10-16 13:52 METAR KCQX 161752Z AUTO 33009G15KT 300V010 10SM FEW037 15/09 A2992 RMK AO2
                 SLP133 60000 T01500094 10178 20150 51009 =
2017-10-16 12:52 METAR KCQX 161652Z AUTO VRB06G14KT 10SM CLR 16/11 A2990 RMK AO2 SLP127 T01610106
                 =
2017-10-16 11:52 METAR KCQX 161552Z AUTO 32008KT 10SM CLR 17/12 A2991 RMK AO2 SLP130 T01720117 =
2017-10-16 10:52 METAR KCQX 161452Z AUTO VRB03KT 10SM FEW027 FEW060 OVC110 17/13 A2989 RMK AO2
                 RAB1356E10 SLP123 P0000 60000 T01720133 51021 =
2017-10-16 09:52 METAR KCQX 161352Z AUTO VRB04KT 10SM OVC110 17/15 A2987 RMK AO2 RAB26E35 SLP117
                 P0000 T01720150 =
2017-10-16 08:52 METAR KCQX 161252Z AUTO VRB03KT 10SM SCT048 OVC100 18/15 A2986 RMK AO2 SLP112
                 T01780150 =
2017-10-16 08:09 METAR KCQX 161209Z AUTO 27003KT 10SM SCT027 BKN043 OVC095 18/16 A2984 RMK AO2
                 T01780156 =
2017-10-16 07:52 METAR KCQX 161152Z AUTO 29003KT 10SM OVC025 18/16 A2983 RMK AO2 SLP102 60001
                 70001 T01780161 10189 20178 53019 =
2017-10-16 06:52 METAR KCQX 161052Z AUTO VRB03KT 10SM SCT006 SCT010 OVC019 19/18 A2979 RMK AO2
                 RAB30E45 SLP088 P0001 T01890183 =
2017-10-16 06:49 METAR KCQX 161049Z AUTO 00000KT 10SM SCT006 SCT010 OVC019 19/18 A2979 RMK AO2
                 RAB30E45 P0001 =
2017-10-16 06:37 METAR KCQX 161037Z AUTO VRB04KT 4SM -RA BR BKN005 OVC010 19/19 A2980 RMK AO2
                 RAB30 CIG 004V008 P0001 T01890189 =
2017-10-16 05:52 METAR KCQX 160952Z AUTO 24006KT 4SM BR OVC003 19/19 A2979 RMK AO2 SLP089
                 T01890189 =
2017-10-16 05:17 METAR KCQX 160917Z AUTO VRB06KT 3SM BR OVC002 18/18 A2978 RMK AO2 T01830183 =
2017-10-16 04:52 METAR KCQX 160852Z AUTO 23007G18KT 190V250 2 1/2SM BR OVC002 18/18 A2977 RMK AO2
                 SLP082 60000 T01830183 56007 =
2017-10-16 04:14 METAR KCQX 160814Z AUTO 23007G17KT 3SM BR OVC002 18/18 A2977 RMK AO2 T01830183 =
2017-10-16 03:52 METAR KCQX 160752Z AUTO 23008G19KT 2 1/2SM BR OVC002 18/18 A2977 RMK AO2
                 RAB31E48 SLP083 P0000 T01830183 =
2017-10-16 03:36 METAR KCQX 160736Z AUTO 24009G18KT 2 1/2SM -RA BR OVC003 18/18 A2978 RMK AO2
                 RAB31 P0000 T01830183 =
2017-10-16 03:00 METAR KCQX 160700Z AUTO 23012G20KT 3SM BR OVC002 18/18 A2979 RMK AO2 T01830183 =
2017-10-16 02:52 METAR KCQX 160652Z AUTO 23011G21KT 2 1/2SM BR OVC002 18/18 A2979 RMK AO2 SLP087
                 T01830183 =
2017-10-16 02:25 METAR KCQX 160625Z AUTO 22014G21KT 2 1/2SM BR OVC004 18/18 A2979 RMK AO2
                 T01830183 =
2017-10-16 02:01 METAR KCQX 160601Z AUTO 23011G23KT 5SM BR OVC004 18/18 A2979 RMK AO2 CIG 003V008
                 T01830183 =
2017-10-16 01:52 METAR KCQX 160552Z AUTO 23011G25KT 5SM BR OVC006 18/18 A2979 RMK AO2 PK WND
                 23026/0511 CIG 004V010 SLP090 T01830183 10189 20178 58010 =
2017-10-16 00:52 METAR KCQX 160452Z AUTO 22012G28KT 8SM OVC009 18/18 A2981 RMK AO2 PK WND
                 22028/0414 CIG 007V013 SLP094 T01830183 401940156 =
2017-10-16 00:29 METAR KCQX 160429Z AUTO 23012G26KT 8SM BKN009 OVC013 18/18 A2981 RMK AO2 PK WND
                 22028/0414 CIG 007V011 T01830178 =
2017-10-15 23:52 METAR KCQX 160352Z AUTO 23012G29KT 10SM OVC010 19/18 A2982 RMK AO2 PK WND
                 22029/0302 SLP098 T01890178 =
2017-10-15 22:52 METAR KCQX 160252Z AUTO 23013G35KT 10SM OVC011 19/18 A2982 RMK AO2 PK WND
                 23035/0245 SLP100 T01890178 58006 =
2017-10-15 21:52 METAR KCQX 160152Z AUTO 23015G25KT 10SM OVC010 18/18 A2983 RMK AO2 PK WND
                 23031/0126 SLP103 T01830178 =
2017-10-15 21:29 METAR KCQX 160129Z AUTO 23015G31KT 10SM OVC010 18/18 A2983 RMK AO2 PK WND
                 23031/0126 T01830178 =
2017-10-15 20:52 METAR KCQX 160052Z AUTO 22010G24KT 10SM OVC009 18/18 A2984 RMK AO2 PK WND
                 23028/0032 SLP105 T01830183 =
2017-10-15 19:52 METAR KCQX 152352Z AUTO 22013G27KT 10SM SCT004 OVC012 18/18 A2984 RMK AO2 PK WND
                 21027/2352 SLP106 60000 T01780178 10194 20178 58015 =
2017-10-15 19:49 METAR KCQX 152349Z AUTO 22013G27KT 10SM SCT004 OVC012 18/18 A2984 RMK AO2 PK WND
                 24027/2337 =
2017-10-15 19:12 METAR KCQX 152312Z AUTO 22011G24KT 4SM BR OVC002 18/18 A2985 RMK AO2 T01830183 =
2017-10-15 19:04 METAR KCQX 152304Z AUTO 22012G23KT 2 1/2SM BR OVC002 18/18 A2986 RMK AO2
                 T01830183 =
2017-10-15 18:52 METAR KCQX 152252Z AUTO 22012G22KT 1 1/2SM BR OVC002 18/18 A2986 RMK AO2
                 RAB18E28 SLP111 P0000 T01830183 =
2017-10-15 18:45 METAR KCQX 152245Z AUTO 22012G21KT 1 1/4SM BR OVC002 18/18 A2986 RMK AO2
                 RAB18E28 P0000 T01830183 =
2017-10-15 18:38 METAR KCQX 152238Z AUTO 22008G22KT 3/4SM BR VV002 18/18 A2986 RMK AO2 RAB18E28
                 P0000 T01830183 =
2017-10-15 18:26 METAR KCQX 152226Z AUTO 22011G18KT 1SM -RA BR VV002 18/18 A2986 RMK AO2 RAB18
                 P0000 T01830183 =
2017-10-15 17:52 METAR KCQX 152152Z AUTO 23008G18KT 3/4SM BR VV002 18/18 A2988 RMK AO2 SLP118
                 T01830183 =

Support USWX by starting your Amazon purchase here.